OMDBOIBK

Guest
Details From OMDB - DUBAI INTL
To OIBK - Kish Island
Flight Number -
Tags generated
Created
Modified
Stats Distance 107 nm / 198 km
Max Altitude 6,300 ft / 1,920 m
Waypoints 3
Social Downloads 3
Likes 0
Share VATSIM

Download

Looking for another format? Having issues loading an existing format? Contact us
Advertisement - Login to hide

Notes

Basic altitude profile: - Ascent Rate: 2500ft/min - Ascent Speed: 100kts - Cruise Altitude: 35000ft - Cruise Speed: 180kts - Descent Rate: 1500ft/min - Descent Speed: 180kts Options: - Use NATs: yes - Use PACOTS: yes - Use low airways: yes - Use high airways: yes

Route

OMDB RAGOL OIBK

ID Type Via Altitude Latitude Longitude Leg Dist Tot Dist Heading (true) Name
O OMDB APT - 0 ft / 0 m 25.25491˚ 55.36426˚ - 0 nm - DUBAI INTL
RAGOL FIX - 6,300 ft / 1,920 m 25.46194˚ 55.12750˚ 17 nm 17 nm 314° / 314° -
O OIBK APT - 0 ft / 0 m 26.52701˚ 53.98024˚ 89 nm 106 nm 316° / 316° Kish Island

Altitude Profile

Advertisement - Login to hide

OMDB

Details ICAO OMDB (DXB)
Name DUBAI INTL
Region United Arab Emirates
Timezone Asia/Dubai (UTC+4.0)
Stats Elevation 62 ft / 19 m (AMSL)
Location 25.254912° 55.364260°
Runways 2
Magnetic Variation 2.047° E

METAR

OMDB 111900Z 26007KT 230V290 9999 FEW036 23/15 Q1018 NOSIG

Decode

TAF

TAF OMDB 111658Z 1118/1300 28012KT 9999 FEW035 PROB40 1118/1205 21005KT BECMG 1215/1217 10007KT

Decode

Departure Runways

ID Width Length Bearing (true) Bearing (mag) Surface Threshold Offset Overrun Length
12L 197 ft / 60 m 13,124 ft / 4,000 m 121.49° 119.44° Asphalt 1,312 ft / 400 m 395 ft / 120 m
12R 151 ft / 46 m 13,139 ft / 4,005 m 121.48° 119.43° Asphalt 394 ft / 120 m 197 ft / 60 m
30L 151 ft / 46 m 13,139 ft / 4,005 m 301.50° 299.45° Asphalt 2,953 ft / 900 m 197 ft / 60 m
30R 197 ft / 60 m 13,124 ft / 4,000 m 301.51° 299.46° Asphalt 0 ft / 0 m 395 ft / 120 m

OIBK

Details ICAO OIBK (KIH)
Name Kish Island
Region Iran
Timezone Asia/Tehran (UTC+3.5)
Stats Elevation 101 ft / 31 m (AMSL)
Location 26.527005° 53.980242°
Runways 3
Magnetic Variation 2.427° E

METAR

OIBK 111900Z 29010KT CAVOK 22/13 Q1016

Decode

TAF

TAF OIBK 111730Z 1118/1224 32008MPS 8000 NSC BECMG 1206/1208 08004MPS

Decode

Destination Runways

ID Width Length Bearing (true) Bearing (mag) Surface Threshold Offset Overrun Length
09 148 ft / 45 m 11,986 ft / 3,653 m 94.89° 92.46° Asphalt 0 ft / 0 m 1,181 ft / 360 m
09L 215 ft / 66 m 11,986 ft / 3,653 m 94.88° 92.45° Asphalt 0 ft / 0 m 0 ft / 0 m
09R 148 ft / 45 m 11,986 ft / 3,653 m 94.89° 92.46° Asphalt 0 ft / 0 m 1,181 ft / 360 m
27 148 ft / 45 m 11,986 ft / 3,653 m 274.91° 272.48° Asphalt 0 ft / 0 m 190 ft / 58 m
27L 148 ft / 45 m 11,986 ft / 3,653 m 274.90° 272.47° Asphalt 0 ft / 0 m 190 ft / 58 m
27R 215 ft / 66 m 11,986 ft / 3,653 m 274.90° 272.47° Asphalt 0 ft / 0 m 0 ft / 0 m

Popular Alternatives